createdAt,value
2023-03-11T00:01:25.033Z,6.33
2023-03-11T00:04:26.720Z,6.50
2023-03-11T00:07:28.332Z,4.93
2023-03-11T00:10:31.640Z,6.13
2023-03-11T00:13:33.286Z,4.93
2023-03-11T00:16:34.977Z,5.13
2023-03-11T00:19:36.577Z,5.63
2023-03-11T00:22:38.232Z,4.80
2023-03-11T00:25:40.313Z,5.53
2023-03-11T00:28:41.933Z,4.63
2023-03-11T00:31:44.290Z,4.97
2023-03-11T00:34:45.952Z,4.60
2023-03-11T00:37:48.407Z,5.07
2023-03-11T00:40:50.174Z,5.17
2023-03-11T00:43:51.921Z,5.20
2023-03-11T00:46:53.767Z,4.73
2023-03-11T00:49:55.571Z,4.87
2023-03-11T00:52:57.347Z,5.70
2023-03-11T00:56:06.144Z,6.67
2023-03-11T00:59:07.770Z,6.20
2023-03-11T01:02:09.440Z,5.20
2023-03-11T01:05:11.349Z,4.97
2023-03-11T01:08:13.086Z,5.40
2023-03-11T01:11:14.689Z,4.63
2023-03-11T01:14:16.298Z,3.77
2023-03-11T01:17:19.286Z,3.90
2023-03-11T01:20:21.068Z,4.30
2023-03-11T01:23:22.912Z,4.13
2023-03-11T01:26:24.566Z,4.30
2023-03-11T01:29:26.183Z,4.40
2023-03-11T01:32:27.898Z,5.13
2023-03-11T01:35:30.380Z,4.87
2023-03-11T01:38:32.118Z,4.43
2023-03-11T01:41:33.707Z,4.57
2023-03-11T01:44:36.869Z,3.93
2023-03-11T01:47:39.611Z,4.83
2023-03-11T01:50:48.293Z,4.87
2023-03-11T01:53:50.285Z,4.27
2023-03-11T01:56:52.517Z,4.67
2023-03-11T01:59:57.129Z,4.40
2023-03-11T02:03:01.389Z,4.40
2023-03-11T02:06:05.722Z,5.17
2023-03-11T02:09:08.556Z,4.20
2023-03-11T02:12:12.128Z,4.63
2023-03-11T02:15:14.286Z,5.03
2023-03-11T02:18:20.396Z,4.87
2023-03-11T02:21:30.223Z,5.40
2023-03-11T02:24:38.600Z,4.03
2023-03-11T02:27:42.068Z,4.10
2023-03-11T02:30:45.738Z,4.33
2023-03-11T02:33:49.407Z,4.37
2023-03-11T02:36:51.944Z,3.70
2023-03-11T02:39:55.183Z,3.80
2023-03-11T02:42:59.558Z,3.87
2023-03-11T02:46:02.119Z,3.47
2023-03-11T02:49:04.880Z,4.03
2023-03-11T02:52:08.160Z,3.57
2023-03-11T02:55:11.987Z,3.87
2023-03-11T02:58:14.853Z,3.33
2023-03-11T03:01:16.729Z,3.37
2023-03-11T03:04:20.313Z,3.43
2023-03-11T03:07:21.995Z,3.60
2023-03-11T03:10:23.793Z,3.53
2023-03-11T03:13:26.198Z,3.40
2023-03-11T03:16:30.246Z,4.17
2023-03-11T03:19:32.105Z,3.97
2023-03-11T03:22:34.022Z,3.80
2023-03-11T03:25:35.719Z,3.80
2023-03-11T03:28:41.451Z,5.33
2023-03-11T03:31:43.713Z,5.63
2023-03-11T03:34:45.775Z,4.70
2023-03-11T03:37:47.691Z,4.07
2023-03-11T03:40:50.088Z,3.80
2023-03-11T03:43:54.846Z,3.70
2023-03-11T03:46:56.728Z,3.50
2023-03-11T03:49:58.568Z,3.50
2023-03-11T03:53:00.713Z,3.07
2023-03-11T03:56:03.816Z,4.00
2023-03-11T03:59:07.789Z,4.03
2023-03-11T04:02:15.137Z,3.40
2023-03-11T04:05:17.581Z,4.73
2023-03-11T04:08:20.559Z,4.63
2023-03-11T04:11:22.503Z,5.77
2023-03-11T04:14:24.589Z,5.07
2023-03-11T04:17:30.918Z,4.77
2023-03-11T04:20:33.130Z,4.77
2023-03-11T04:23:34.954Z,4.77
2023-03-11T04:26:37.495Z,5.40
2023-03-11T04:29:42.827Z,5.00
2023-03-11T04:32:44.654Z,5.20
2023-03-11T04:35:46.639Z,5.87
2023-03-11T04:38:49.007Z,5.60
2023-03-11T04:41:51.490Z,6.27
2023-03-11T04:44:57.309Z,5.93
2023-03-11T04:48:00.686Z,6.00
2023-03-11T04:51:03.733Z,4.80
2023-03-11T04:54:06.878Z,5.80
2023-03-11T04:57:08.688Z,5.40
2023-03-11T05:00:12.320Z,5.70
2023-03-11T05:03:17.677Z,6.53
2023-03-11T05:06:19.622Z,7.30
2023-03-11T05:09:22.201Z,6.50
2023-03-11T05:12:24.214Z,6.20
2023-03-11T05:15:30.812Z,6.50
2023-03-11T05:18:35.323Z,6.67
2023-03-11T05:21:37.842Z,6.50
2023-03-11T05:24:39.673Z,6.30
2023-03-11T05:27:41.514Z,6.27
2023-03-11T05:30:43.961Z,6.27
2023-03-11T05:33:45.906Z,6.43
2023-03-11T05:36:48.909Z,7.90
2023-03-11T05:39:51.808Z,6.40
2023-03-11T05:42:54.018Z,7.27
2023-03-11T05:45:56.683Z,8.83
2023-03-11T05:49:04.409Z,10.47
2023-03-11T05:52:08.456Z,9.57
2023-03-11T05:55:12.386Z,9.30
2023-03-11T05:58:16.459Z,9.63
2023-03-11T06:01:19.463Z,11.10
2023-03-11T06:04:21.718Z,9.60
2023-03-11T06:07:23.752Z,8.90
2023-03-11T06:10:26.273Z,11.40
2023-03-11T06:13:28.403Z,12.73
2023-03-11T06:16:30.297Z,11.57
2023-03-11T06:19:35.208Z,10.47
2023-03-11T06:22:39.977Z,11.30
2023-03-11T06:25:45.266Z,11.60
2023-03-11T06:28:47.639Z,10.67
2023-03-11T06:31:50.061Z,9.30
2023-03-11T06:34:52.890Z,9.17
2023-03-11T06:37:56.120Z,9.07
2023-03-11T06:41:01.724Z,9.00
2023-03-11T06:44:04.290Z,8.50
2023-03-11T06:47:06.264Z,8.03
2023-03-11T06:50:09.297Z,7.03
2023-03-11T06:53:11.377Z,8.33
2023-03-11T06:56:13.819Z,12.17
2023-03-11T06:59:25.230Z,13.60
2023-03-11T07:02:27.471Z,10.53
2023-03-11T07:05:29.273Z,8.63
2023-03-11T07:08:36.060Z,10.17
2023-03-11T07:11:40.997Z,8.03
2023-03-11T07:14:46.612Z,7.53
2023-03-11T07:17:48.279Z,9.10
2023-03-11T07:20:50.214Z,6.07
2023-03-11T07:23:53.257Z,6.63
2023-03-11T07:26:55.325Z,7.20
2023-03-11T07:29:56.933Z,8.60
2023-03-11T07:32:58.671Z,9.50
2023-03-11T07:36:00.452Z,11.63
2023-03-11T07:39:05.110Z,8.20
2023-03-11T07:42:06.921Z,4.90
2023-03-11T07:45:10.535Z,4.37
2023-03-11T07:48:12.117Z,3.93
2023-03-11T07:51:15.126Z,3.80
2023-03-11T07:54:16.816Z,3.27
2023-03-11T07:57:18.760Z,2.90
2023-03-11T08:00:20.933Z,2.97
2023-03-11T08:03:25.690Z,2.70
2023-03-11T08:06:31.146Z,2.53
2023-03-11T08:09:34.208Z,2.90
2023-03-11T08:12:35.823Z,2.47
2023-03-11T08:15:38.121Z,2.43
2023-03-11T08:18:39.999Z,2.50
2023-03-11T08:21:42.008Z,2.87
2023-03-11T08:24:43.736Z,2.13
2023-03-11T08:27:45.439Z,2.07
2023-03-11T08:30:47.399Z,6.23
2023-03-11T08:33:50.065Z,1.60
2023-03-11T08:36:51.895Z,1.70
2023-03-11T08:39:53.477Z,3.47
2023-03-11T08:42:55.628Z,3.27
2023-03-11T08:46:00.194Z,3.80
2023-03-11T08:49:02.432Z,2.13
2023-03-11T08:52:04.264Z,2.73
2023-03-11T08:55:06.376Z,1.93
2023-03-11T08:58:08.221Z,2.40
2023-03-11T09:01:14.061Z,2.73
2023-03-11T09:04:15.782Z,1.97
2023-03-11T09:07:17.755Z,1.30
2023-03-11T09:10:19.523Z,1.97
2023-03-11T09:13:21.202Z,2.10
2023-03-11T09:16:23.520Z,1.13
2023-03-11T09:19:25.183Z,1.80
2023-03-11T09:22:26.841Z,1.00
2023-03-11T09:25:28.480Z,2.10
2023-03-11T09:28:30.146Z,1.10
2023-03-11T09:31:32.027Z,1.30
2023-03-11T09:34:33.774Z,1.40
2023-03-11T09:37:35.920Z,1.30
2023-03-11T09:40:56.478Z,0.90
2023-03-11T09:43:58.118Z,0.77
2023-03-11T09:46:59.735Z,1.27
2023-03-11T09:50:07.677Z,0.63
2023-03-11T09:53:19.149Z,0.83
2023-03-11T09:56:22.371Z,1.80
2023-03-11T09:59:30.547Z,1.33
2023-03-11T10:02:32.657Z,0.80
2023-03-11T10:05:34.587Z,0.77
2023-03-11T10:08:54.975Z,0.70
2023-03-11T10:12:02.564Z,0.57
2023-03-11T10:15:23.392Z,2.70
2023-03-11T10:18:25.040Z,1.10
2023-03-11T10:21:41.254Z,1.17
2023-03-11T10:24:42.809Z,1.03
2023-03-11T10:27:47.165Z,1.73
2023-03-11T10:30:57.339Z,1.00
2023-03-11T10:34:15.704Z,1.17
2023-03-11T10:37:17.333Z,1.10
2023-03-11T10:40:25.218Z,1.73
2023-03-11T10:43:43.289Z,1.10
2023-03-11T10:46:45.281Z,1.30
2023-03-11T10:49:47.034Z,1.60
2023-03-11T10:53:07.632Z,1.60
2023-03-11T10:56:23.816Z,1.60
2023-03-11T10:59:31.007Z,4.30
2023-03-11T11:02:42.696Z,2.10
2023-03-11T11:05:46.422Z,1.63
2023-03-11T11:08:48.041Z,3.37
2023-03-11T11:12:01.041Z,2.20
2023-03-11T11:15:02.783Z,3.87
2023-03-11T11:18:16.753Z,2.40
2023-03-11T11:21:33.848Z,4.40
2023-03-11T11:24:35.438Z,3.50
2023-03-11T11:27:37.034Z,3.10
2023-03-11T11:30:52.091Z,20.67
2023-03-11T11:33:57.008Z,2.10
2023-03-11T11:36:59.584Z,3.40
2023-03-11T11:40:11.215Z,2.03
2023-03-11T11:43:16.612Z,2.30
2023-03-11T11:46:36.991Z,2.00
2023-03-11T11:49:44.099Z,1.90
2023-03-11T11:52:52.888Z,6.90
2023-03-11T11:55:54.888Z,2.20
2023-03-11T11:58:56.654Z,2.03
2023-03-11T12:02:05.146Z,1.50
2023-03-11T12:05:07.247Z,1.50
2023-03-11T12:08:13.875Z,2.20
2023-03-11T12:11:22.644Z,2.17
2023-03-11T12:14:43.042Z,2.53
2023-03-11T12:17:47.287Z,1.70
2023-03-11T12:20:52.278Z,15.93
2023-03-11T12:24:11.918Z,3.83
2023-03-11T12:27:25.286Z,4.93
2023-03-11T12:30:29.638Z,2.57
2023-03-11T12:33:37.194Z,2.70
2023-03-11T12:36:40.365Z,2.10
2023-03-11T12:39:42.056Z,2.13
2023-03-11T12:42:43.886Z,3.13
2023-03-11T12:45:49.868Z,7.53
2023-03-11T12:49:09.394Z,5.10
2023-03-11T12:52:11.014Z,4.93
2023-03-11T12:55:18.886Z,4.37
2023-03-11T12:58:39.052Z,5.70
2023-03-11T13:01:43.881Z,4.70
2023-03-11T13:04:51.848Z,3.40
2023-03-11T13:07:57.332Z,2.43
2023-03-11T13:11:01.984Z,2.50
2023-03-11T13:14:23.897Z,2.60
2023-03-11T13:17:31.290Z,2.27
2023-03-11T13:20:38.949Z,3.33
2023-03-11T13:23:40.662Z,2.00
2023-03-11T13:27:04.913Z,1.80
2023-03-11T13:30:12.905Z,1.60
2023-03-11T13:33:37.884Z,1.80
2023-03-11T13:36:40.738Z,2.00
2023-03-11T13:39:55.125Z,2.50
2023-03-11T13:43:02.802Z,2.20
2023-03-11T13:46:08.353Z,2.90
2023-03-11T13:49:19.745Z,3.53
2023-03-11T13:52:26.505Z,3.83
2023-03-11T13:55:31.175Z,3.10
2023-03-11T13:58:32.915Z,3.33
2023-03-11T14:01:34.659Z,4.00
2023-03-11T14:04:37.564Z,3.30
2023-03-11T14:07:39.498Z,3.60
2023-03-11T14:10:51.644Z,3.50
2023-03-11T14:13:59.110Z,2.90
2023-03-11T14:17:04.021Z,4.60
2023-03-11T14:20:15.469Z,4.00
2023-03-11T14:23:20.480Z,2.47
2023-03-11T14:26:29.885Z,3.30
2023-03-11T14:29:43.463Z,2.53
2023-03-11T14:32:55.121Z,1.83
2023-03-11T14:35:58.158Z,2.50
2023-03-11T14:39:00.000Z,1.90
2023-03-11T14:42:04.773Z,2.63
2023-03-11T14:45:06.651Z,3.77
2023-03-11T14:48:19.842Z,2.83
2023-03-11T14:51:25.223Z,2.20
2023-03-11T14:54:29.316Z,2.80
2023-03-11T14:57:33.976Z,3.53
2023-03-11T15:00:38.554Z,3.00
2023-03-11T15:03:45.151Z,2.50
2023-03-11T15:06:47.379Z,6.43
2023-03-11T15:09:49.226Z,5.00
2023-03-11T15:12:50.916Z,3.67
2023-03-11T15:15:59.252Z,4.23
2023-03-11T15:19:01.981Z,4.63
2023-03-11T15:22:20.373Z,5.63
2023-03-11T15:25:22.416Z,5.30
2023-03-11T15:28:31.349Z,4.90
2023-03-11T15:31:37.426Z,6.40
2023-03-11T15:34:39.107Z,4.47
2023-03-11T15:37:41.656Z,2.20
2023-03-11T15:40:50.688Z,1.80
2023-03-11T15:43:52.328Z,2.10
2023-03-11T15:46:53.970Z,7.73
2023-03-11T15:49:55.639Z,6.03
2023-03-11T15:52:58.355Z,3.70
2023-03-11T15:56:10.382Z,3.47
2023-03-11T15:59:16.513Z,4.10
2023-03-11T16:02:22.365Z,6.43
2023-03-11T16:05:24.948Z,5.90
2023-03-11T16:08:26.639Z,6.13
2023-03-11T16:11:32.706Z,5.30
2023-03-11T16:14:34.357Z,4.57
2023-03-11T16:17:48.902Z,4.80
2023-03-11T16:20:52.647Z,5.37
2023-03-11T16:23:54.303Z,7.00
2023-03-11T16:26:56.930Z,7.40
2023-03-11T16:29:58.580Z,6.80
2023-03-11T16:33:02.678Z,6.40
2023-03-11T16:36:06.072Z,5.80
2023-03-11T16:39:07.833Z,4.87
2023-03-11T16:42:10.000Z,2.73
2023-03-11T16:45:12.646Z,3.90
2023-03-11T16:48:14.383Z,3.73
2023-03-11T16:51:16.126Z,3.30
2023-03-11T16:54:17.742Z,3.37
2023-03-11T16:57:19.469Z,3.40
2023-03-11T17:00:21.155Z,3.70
2023-03-11T17:03:22.874Z,3.50
2023-03-11T17:06:24.493Z,2.00
2023-03-11T17:09:26.264Z,2.17
2023-03-11T17:12:28.403Z,3.70
2023-03-11T17:15:30.073Z,3.20
2023-03-11T17:18:31.736Z,4.10
2023-03-11T17:21:33.469Z,4.33
2023-03-11T17:24:36.027Z,3.87
2023-03-11T17:27:37.680Z,2.60
2023-03-11T17:30:43.365Z,1.60
2023-03-11T17:33:45.047Z,2.37
2023-03-11T17:36:46.736Z,2.27
2023-03-11T17:39:48.516Z,3.30
2023-03-11T17:42:50.125Z,1.70
2023-03-11T17:45:52.143Z,3.70
2023-03-11T17:48:53.811Z,2.60
2023-03-11T17:51:55.460Z,2.57
2023-03-11T17:54:57.115Z,2.77
2023-03-11T17:57:58.764Z,1.50
2023-03-11T18:01:05.119Z,3.23
2023-03-11T18:04:07.293Z,1.87
2023-03-11T18:07:08.981Z,1.70
2023-03-11T18:10:11.299Z,1.90
2023-03-11T18:13:12.921Z,2.10
2023-03-11T18:16:18.986Z,2.20
2023-03-11T18:19:20.656Z,1.97
2023-03-11T18:22:22.254Z,2.37
2023-03-11T18:25:23.903Z,2.03
2023-03-11T18:28:25.541Z,5.83
2023-03-11T18:31:28.383Z,2.20
2023-03-11T18:34:30.641Z,2.77
2023-03-11T18:37:32.860Z,2.60
2023-03-11T18:40:34.502Z,2.60
2023-03-11T18:43:36.280Z,2.40
2023-03-11T18:46:37.941Z,1.70
2023-03-11T18:49:40.533Z,1.87
2023-03-11T18:52:42.163Z,2.30
2023-03-11T18:55:43.854Z,2.53
2023-03-11T18:58:45.570Z,1.63
2023-03-11T19:01:49.244Z,1.30
2023-03-11T19:04:51.020Z,1.60
2023-03-11T19:07:52.821Z,2.20
2023-03-11T19:10:54.549Z,1.73
2023-03-11T19:13:56.208Z,1.20
2023-03-11T19:16:57.945Z,1.50
2023-03-11T19:19:59.570Z,2.97
2023-03-11T19:23:01.197Z,2.20
2023-03-11T19:26:03.777Z,1.77
2023-03-11T19:29:05.476Z,1.53
2023-03-11T19:32:07.183Z,1.70
2023-03-11T19:35:10.959Z,1.60
2023-03-11T19:38:12.575Z,2.00
2023-03-11T19:41:15.937Z,2.10
2023-03-11T19:44:17.581Z,6.43
2023-03-11T19:47:19.205Z,5.30
2023-03-11T19:50:20.766Z,3.70
2023-03-11T19:53:22.745Z,2.33
2023-03-11T19:56:27.540Z,1.50
2023-03-11T19:59:29.318Z,1.80
2023-03-11T20:02:31.164Z,2.67
2023-03-11T20:05:34.851Z,1.33
2023-03-11T20:08:37.790Z,0.83
2023-03-11T20:11:40.352Z,1.70
2023-03-11T20:14:42.728Z,2.10
2023-03-11T20:17:44.424Z,1.70
2023-03-11T20:20:46.801Z,1.47
2023-03-11T20:23:49.129Z,1.10
2023-03-11T20:26:51.341Z,1.27
2023-03-11T20:29:53.129Z,1.10
2023-03-11T20:32:54.864Z,1.10
2023-03-11T20:36:03.156Z,1.00
2023-03-11T20:39:08.556Z,1.40
2023-03-11T20:42:11.734Z,0.60
2023-03-11T20:45:14.288Z,1.70
2023-03-11T20:48:16.007Z,0.90
2023-03-11T20:51:20.400Z,1.20
2023-03-11T20:54:22.164Z,1.00
2023-03-11T20:57:23.886Z,1.10
2023-03-11T21:00:25.631Z,1.30
2023-03-11T21:03:27.496Z,1.20
2023-03-11T21:06:30.593Z,1.00
2023-03-11T21:09:32.279Z,1.00
2023-03-11T21:12:33.953Z,1.40
2023-03-11T21:15:36.252Z,0.90
2023-03-11T21:18:38.043Z,0.90
2023-03-11T21:21:40.141Z,1.20
2023-03-11T21:24:41.814Z,1.30
2023-03-11T21:27:43.429Z,1.20
2023-03-11T21:30:45.044Z,1.00
2023-03-11T21:33:47.610Z,1.40
2023-03-11T21:36:49.407Z,1.20
2023-03-11T21:39:51.125Z,1.20
2023-03-11T21:42:52.783Z,0.80
2023-03-11T21:45:54.521Z,0.93
2023-03-11T21:48:56.346Z,1.50
2023-03-11T21:51:59.646Z,1.80
2023-03-11T21:55:02.735Z,1.03
2023-03-11T21:58:04.667Z,1.50
2023-03-11T22:01:07.194Z,1.63
2023-03-11T22:04:09.105Z,1.93
2023-03-11T22:07:10.980Z,1.53
2023-03-11T22:10:12.721Z,1.33
2023-03-11T22:13:14.563Z,1.60
2023-03-11T22:16:16.576Z,1.60
2023-03-11T22:19:18.353Z,1.27
2023-03-11T22:22:20.225Z,1.60
2023-03-11T22:25:21.976Z,1.23
2023-03-11T22:28:23.718Z,1.10
2023-03-11T22:31:25.420Z,1.27
2023-03-11T22:34:27.121Z,1.50
2023-03-11T22:37:28.692Z,1.60
2023-03-11T22:40:30.545Z,1.47
2023-03-11T22:43:32.446Z,1.60
2023-03-11T22:46:34.146Z,1.40
2023-03-11T22:49:35.727Z,1.83
2023-03-11T22:52:37.409Z,2.53
2023-03-11T22:55:40.303Z,2.20
2023-03-11T22:58:42.546Z,1.97
2023-03-11T23:01:44.215Z,2.17
2023-03-11T23:04:46.199Z,1.97
2023-03-11T23:07:47.818Z,2.13
2023-03-11T23:10:49.464Z,1.70
2023-03-11T23:13:51.246Z,2.00
2023-03-11T23:16:52.879Z,2.17
2023-03-11T23:19:54.636Z,1.70
2023-03-11T23:22:56.235Z,1.87
2023-03-11T23:25:57.848Z,2.37
2023-03-11T23:29:00.987Z,1.80
2023-03-11T23:32:02.784Z,2.20
2023-03-11T23:35:04.863Z,1.60
2023-03-11T23:38:06.545Z,1.60
2023-03-11T23:41:09.193Z,1.70
2023-03-11T23:44:10.860Z,2.20
2023-03-11T23:47:12.520Z,1.63
2023-03-11T23:50:14.162Z,2.33
2023-03-11T23:53:17.938Z,1.97
2023-03-11T23:56:19.702Z,1.97
2023-03-11T23:59:21.420Z,3.07
